Главная страница
METAR-TAF:

METAR-TAF

Аэропорты :

Абердин, Мэриленд, США

широта: 39-28N, долгота: 076-10W, высота над уровнем моря: 18 м

Текущие метеонаблюдения

Эта сводка был подготовлена 12 часа и 2 минут назад, в 00:50 UTC
Ветер 6 Узел от западный-юго-западный
Температура 2°C
Влажность 75%
Давление 1016 hPa
Видимость: 16.1 км
ясное небо

METAR: KAPG 170050Z 25006KT 10SM CLR 02/M02 A3000 RMK SLP163

Время: 07:52 (12:52 UTC)


TAF: отсутствует

Метеонаблюдения и прогнозы для более 4000 аэропортов (сводки METAR и TAF).

Имеющиеся станции представлены на карте желтыми и красными точками.

Чтобы увидеть название станции, наведите на нее мышь.

Затем щелкните, чтобы увидеть метеонаблюдения и метеопрогнозы.

Управление картой: чтобы увеличить масштаб, щелкните зеленые кнопки с черным крестиком; чтобы уменьшить масштаб, щелкните зеленую кнопку с тире; для просмотра соседних карт щелкайте зеленые стрелки.


METAR-TAF: